Terminal Aerodrome Forecast
Issued by NWS Grand Forks, ND

Home | Current Version | Previous Version | Text Only | Print | Product List | Glossary Off
Versions: 1 2 3 4 5 6 7 8 9 10 11 12 13 14 15

000
FTUS43 KFGF 251143 AAA
TAFGFK
TAF AMD
KGFK 251143Z 2512/2612 31008KT P6SM FEW250
     FM251600 34010KT P6SM SCT040
     FM251800 33010KT P6SM BKN050
     FM252300 36010KT P6SM SCT110
     FM260000 33009KT P6SM SCT120
     FM260300 32005KT P6SM FEW200=

USA.gov is the U.S. government's official web portal to all federal, state and local government web resources and services.